createdAt,value
2023-01-27T00:00:21.221Z,98095.81
2023-01-27T00:03:31.025Z,98099.41
2023-01-27T00:06:37.239Z,98071.41
2023-01-27T00:09:44.531Z,98090.72
2023-01-27T00:13:04.283Z,98091.00
2023-01-27T00:16:11.461Z,98093.22
2023-01-27T00:19:20.723Z,98099.00
2023-01-27T00:22:40.138Z,98095.78
2023-01-27T00:25:50.465Z,98093.91
2023-01-27T00:28:57.449Z,98104.13
2023-01-27T00:32:16.484Z,98106.34
2023-01-27T00:35:26.927Z,98113.09
2023-01-27T00:38:41.053Z,98109.97
2023-01-27T00:41:48.119Z,98107.63
2023-01-27T00:45:06.723Z,98110.03
2023-01-27T00:48:13.678Z,98103.97
2023-01-27T00:51:24.190Z,98096.56
2023-01-27T00:54:31.523Z,98100.63
2023-01-27T00:57:38.005Z,98103.41
2023-01-27T01:00:45.213Z,98097.56
2023-01-27T01:03:51.582Z,98097.34
2023-01-27T01:07:01.130Z,98097.72
2023-01-27T01:10:08.142Z,98095.59
2023-01-27T01:13:15.120Z,98096.88
2023-01-27T01:16:25.474Z,98099.84
2023-01-27T01:19:33.739Z,98094.34
2023-01-27T01:22:42.400Z,98082.72
2023-01-27T01:25:57.594Z,98086.72
2023-01-27T01:29:03.752Z,98084.59
2023-01-27T01:32:11.883Z,98085.41
2023-01-27T01:35:18.203Z,98089.09
2023-01-27T01:38:27.901Z,98090.78
2023-01-27T01:41:34.018Z,98090.00
2023-01-27T01:44:45.694Z,98085.34
2023-01-27T01:47:51.941Z,98070.50
2023-01-27T01:51:08.586Z,98088.88
2023-01-27T01:54:26.960Z,98088.03
2023-01-27T01:57:42.909Z,98088.31
2023-01-27T02:00:49.335Z,98092.16
2023-01-27T02:04:08.642Z,98092.06
2023-01-27T02:07:26.859Z,98085.28
2023-01-27T02:10:38.569Z,98083.22
2023-01-27T02:13:46.870Z,98080.31
2023-01-27T02:16:54.141Z,98074.75
2023-01-27T02:20:16.173Z,98074.13
2023-01-27T02:23:43.272Z,98085.66
2023-01-27T02:26:58.266Z,98081.16
2023-01-27T02:30:05.285Z,98079.28
2023-01-27T02:33:15.502Z,98082.22
2023-01-27T02:36:22.858Z,98079.47
2023-01-27T02:39:39.094Z,98084.66
2023-01-27T02:42:49.905Z,98082.16
2023-01-27T02:46:03.470Z,98075.78
2023-01-27T02:49:11.456Z,98077.78
2023-01-27T02:52:17.665Z,98079.06
2023-01-27T02:55:24.701Z,98077.50
2023-01-27T02:58:34.143Z,98077.81
2023-01-27T03:01:48.313Z,98075.72
2023-01-27T03:04:55.023Z,98079.59
2023-01-27T03:08:02.018Z,98080.63
2023-01-27T03:11:08.781Z,98081.38
2023-01-27T03:14:18.842Z,98083.41
2023-01-27T03:17:39.524Z,98085.47
2023-01-27T03:20:50.093Z,98087.06
2023-01-27T03:23:56.315Z,98085.88
2023-01-27T03:27:03.527Z,98067.69
2023-01-27T03:30:30.479Z,98080.56
2023-01-27T03:33:48.963Z,98091.19
2023-01-27T03:37:35.565Z,98090.91
2023-01-27T03:40:54.829Z,98090.44
2023-01-27T03:44:13.407Z,98090.16
2023-01-27T03:47:23.143Z,98079.41
2023-01-27T03:50:37.993Z,98059.59
2023-01-27T03:53:45.283Z,98086.75
2023-01-27T03:56:51.610Z,98085.69
2023-01-27T03:59:59.050Z,98080.81
2023-01-27T04:03:20.191Z,98079.84
2023-01-27T04:06:42.371Z,98076.72
2023-01-27T04:09:48.473Z,98082.44
2023-01-27T04:12:55.958Z,98087.34
2023-01-27T04:16:02.102Z,98078.50
2023-01-27T04:19:14.736Z,98082.38
2023-01-27T04:22:21.330Z,98080.25
2023-01-27T04:25:28.580Z,98058.16
2023-01-27T04:28:43.739Z,98085.31
2023-01-27T04:31:51.836Z,98076.00
2023-01-27T04:35:00.559Z,98078.97
2023-01-27T04:38:07.696Z,98079.47
2023-01-27T04:41:13.853Z,98082.72
2023-01-27T04:44:23.119Z,98078.75
2023-01-27T04:47:29.357Z,98082.09
2023-01-27T04:50:39.044Z,98081.97
2023-01-27T04:53:45.560Z,98059.34
2023-01-27T04:57:03.726Z,98077.19
2023-01-27T05:00:12.200Z,98078.09
2023-01-27T05:03:19.200Z,98083.75
2023-01-27T05:06:29.395Z,98083.84
2023-01-27T05:09:36.439Z,98088.97
2023-01-27T05:12:42.577Z,98089.06
2023-01-27T05:15:49.723Z,98098.91
2023-01-27T05:18:56.941Z,98102.88
2023-01-27T05:22:06.540Z,98092.03
2023-01-27T05:25:13.956Z,98096.41
2023-01-27T05:28:21.266Z,98104.25
2023-01-27T05:31:31.852Z,98103.50
2023-01-27T05:34:39.864Z,98094.31
2023-01-27T05:37:48.498Z,98096.19
2023-01-27T05:41:01.188Z,98106.41
2023-01-27T05:44:09.018Z,98099.09
2023-01-27T05:47:16.269Z,98106.22
2023-01-27T05:50:22.844Z,98101.19
2023-01-27T05:53:32.717Z,98106.00
2023-01-27T05:56:39.515Z,98108.63
2023-01-27T05:59:48.541Z,98108.72
2023-01-27T06:02:54.773Z,98109.66
2023-01-27T06:06:02.085Z,98103.50
2023-01-27T06:09:13.025Z,98119.38
2023-01-27T06:12:19.977Z,98118.53
2023-01-27T06:15:26.272Z,98124.50
2023-01-27T06:18:33.312Z,98122.72
2023-01-27T06:21:39.407Z,98095.13
2023-01-27T06:24:50.114Z,98127.19
2023-01-27T06:27:58.246Z,98125.63
2023-01-27T06:31:10.618Z,98126.66
2023-01-27T06:34:16.697Z,98137.31
2023-01-27T06:37:23.625Z,98135.75
2023-01-27T06:40:34.962Z,98137.91
2023-01-27T06:43:42.070Z,98138.94
2023-01-27T06:46:48.335Z,98139.84
2023-01-27T06:49:55.324Z,98148.50
2023-01-27T06:53:05.334Z,98157.72
2023-01-27T06:56:16.545Z,98154.91
2023-01-27T06:59:23.549Z,98154.59
2023-01-27T07:02:30.657Z,98156.63
2023-01-27T07:05:37.594Z,98155.03
2023-01-27T07:08:47.016Z,98155.66
2023-01-27T07:11:55.799Z,98135.91
2023-01-27T07:15:02.734Z,98155.69
2023-01-27T07:18:09.727Z,98157.94
2023-01-27T07:21:16.621Z,98161.00
2023-01-27T07:24:22.912Z,98149.66
2023-01-27T07:27:32.578Z,98151.97
2023-01-27T07:30:39.498Z,98159.19
2023-01-27T07:33:46.348Z,98158.03
2023-01-27T07:36:52.421Z,98155.03
2023-01-27T07:39:59.355Z,98157.00
2023-01-27T07:43:08.130Z,98159.19
2023-01-27T07:46:15.465Z,98165.56
2023-01-27T07:49:22.221Z,98155.31
2023-01-27T07:52:29.425Z,98153.53
2023-01-27T07:55:37.367Z,98146.94
2023-01-27T07:58:46.940Z,98159.16
2023-01-27T08:01:53.035Z,98151.34
2023-01-27T08:05:00.145Z,98161.78
2023-01-27T08:08:06.745Z,98168.66
2023-01-27T08:11:18.226Z,98172.88
2023-01-27T08:14:26.986Z,98168.66
2023-01-27T08:17:34.039Z,98167.81
2023-01-27T08:20:40.444Z,98169.97
2023-01-27T08:23:47.392Z,98170.28
2023-01-27T08:26:53.663Z,98159.25
2023-01-27T08:30:03.521Z,98173.38
2023-01-27T08:33:09.871Z,98155.31
2023-01-27T08:36:20.505Z,98177.25
2023-01-27T08:39:26.743Z,98183.09
2023-01-27T08:42:33.998Z,98181.38
2023-01-27T08:45:42.850Z,98186.72
2023-01-27T08:48:50.562Z,98189.56
2023-01-27T08:51:57.687Z,98190.09
2023-01-27T08:55:04.724Z,98189.69
2023-01-27T08:58:11.090Z,98195.34
2023-01-27T09:01:21.383Z,98194.81
2023-01-27T09:04:29.536Z,98200.38
2023-01-27T09:07:36.583Z,98207.78
2023-01-27T09:10:44.716Z,98205.06
2023-01-27T09:13:51.737Z,98206.84
2023-01-27T09:17:00.539Z,98211.53
2023-01-27T09:20:10.483Z,98215.94
2023-01-27T09:23:16.772Z,98209.56
2023-01-27T09:26:23.765Z,98217.94
2023-01-27T09:29:30.138Z,98217.09
2023-01-27T09:32:39.821Z,98218.22
2023-01-27T09:35:55.989Z,98215.09
2023-01-27T09:39:09.950Z,98221.38
2023-01-27T09:42:50.250Z,98213.59
2023-01-27T09:46:25.011Z,98219.25
2023-01-27T09:50:02.184Z,98208.88
2023-01-27T09:53:48.392Z,98222.31
2023-01-27T09:57:10.727Z,98219.78
2023-01-27T10:00:42.481Z,98207.63
2023-01-27T10:04:24.384Z,98210.97
2023-01-27T10:08:12.031Z,98210.25
2023-01-27T10:11:29.937Z,98211.53
2023-01-27T10:14:59.229Z,98204.84
2023-01-27T10:18:54.997Z,98207.91
2023-01-27T10:22:19.075Z,98200.69
2023-01-27T10:25:51.691Z,98207.16
2023-01-27T10:29:10.681Z,98197.97
2023-01-27T10:32:46.628Z,98203.81
2023-01-27T10:35:57.398Z,98205.81
2023-01-27T10:39:28.950Z,98185.84
2023-01-27T10:42:50.811Z,98204.13
2023-01-27T10:46:12.033Z,98204.25
2023-01-27T10:49:29.451Z,98209.34
2023-01-27T10:52:44.594Z,98211.25
2023-01-27T10:56:06.002Z,98213.03
2023-01-27T10:59:33.820Z,98206.22
2023-01-27T11:02:53.137Z,98209.88
2023-01-27T11:06:06.003Z,98208.84
2023-01-27T11:09:31.807Z,98206.53
2023-01-27T11:12:43.938Z,98218.03
2023-01-27T11:15:53.923Z,98214.66
2023-01-27T11:19:16.398Z,98200.03
2023-01-27T11:22:42.572Z,98202.56
2023-01-27T11:26:00.308Z,98198.81
2023-01-27T11:29:29.398Z,98202.16
2023-01-27T11:32:55.535Z,98203.81
2023-01-27T11:36:02.875Z,98193.44
2023-01-27T11:39:09.523Z,98195.84
2023-01-27T11:42:17.708Z,98198.97
2023-01-27T11:45:25.261Z,98191.25
2023-01-27T11:48:45.360Z,98193.88
2023-01-27T11:51:52.179Z,98205.88
2023-01-27T11:55:18.273Z,98194.16
2023-01-27T11:58:33.505Z,98202.16
2023-01-27T12:01:51.403Z,98199.41
2023-01-27T12:05:12.436Z,98193.09
2023-01-27T12:08:42.661Z,98196.84
2023-01-27T12:11:48.830Z,98197.50
2023-01-27T12:14:59.428Z,98191.03
2023-01-27T12:18:17.408Z,98192.91
2023-01-27T12:21:46.830Z,98186.38
2023-01-27T12:25:03.688Z,98181.41
2023-01-27T12:28:31.888Z,98195.00
2023-01-27T12:31:52.512Z,98176.09
2023-01-27T12:35:00.205Z,98190.69
2023-01-27T12:38:20.877Z,98196.00
2023-01-27T12:41:31.327Z,98189.94
2023-01-27T12:44:46.823Z,98194.53
2023-01-27T12:48:19.104Z,98183.13
2023-01-27T12:51:46.035Z,98185.13
2023-01-27T12:54:57.232Z,98185.00
2023-01-27T12:58:05.070Z,98182.50
2023-01-27T13:01:28.834Z,98184.28
2023-01-27T13:04:37.354Z,98184.50
2023-01-27T13:07:52.415Z,98183.00
2023-01-27T13:11:05.648Z,98178.72
2023-01-27T13:14:21.782Z,98183.97
2023-01-27T13:17:39.363Z,98192.72
2023-01-27T13:20:54.103Z,98190.06
2023-01-27T13:24:08.471Z,98185.78
2023-01-27T13:27:26.077Z,98182.44
2023-01-27T13:30:40.663Z,98186.34
2023-01-27T13:33:56.321Z,98184.31
2023-01-27T13:37:15.351Z,98192.81
2023-01-27T13:40:29.685Z,98187.88
2023-01-27T13:43:49.945Z,98189.53
2023-01-27T13:47:05.859Z,98193.19
2023-01-27T13:50:30.678Z,98196.78
2023-01-27T13:53:37.972Z,98191.84
2023-01-27T13:57:09.095Z,98191.38
2023-01-27T14:00:28.263Z,98201.78
2023-01-27T14:04:33.127Z,98202.63
2023-01-27T14:07:53.463Z,98202.03
2023-01-27T14:11:21.007Z,98212.75
2023-01-27T14:14:58.172Z,98211.34
2023-01-27T14:18:18.379Z,98211.34
2023-01-27T14:21:44.365Z,98215.59
2023-01-27T14:25:21.886Z,98212.47
2023-01-27T14:28:47.299Z,98226.97
2023-01-27T14:32:10.194Z,98222.16
2023-01-27T14:35:48.827Z,98232.34
2023-01-27T14:39:15.551Z,98234.88
2023-01-27T14:42:41.458Z,98240.91
2023-01-27T14:45:59.533Z,98236.59
2023-01-27T14:49:27.193Z,98240.41
2023-01-27T14:52:49.664Z,98241.25
2023-01-27T14:56:09.754Z,98249.59
2023-01-27T14:59:35.454Z,98259.63
2023-01-27T15:02:56.648Z,98251.16
2023-01-27T15:06:17.782Z,98258.59
2023-01-27T15:09:54.548Z,98272.41
2023-01-27T15:13:39.363Z,98262.47
2023-01-27T15:17:14.758Z,98257.66
2023-01-27T15:20:56.008Z,98264.25
2023-01-27T15:24:37.365Z,98279.19
2023-01-27T15:27:46.110Z,98264.84
2023-01-27T15:31:24.193Z,98284.34
2023-01-27T15:34:31.471Z,98281.81
2023-01-27T15:38:02.182Z,98283.28
2023-01-27T15:41:17.803Z,98284.31
2023-01-27T15:44:33.694Z,98287.16
2023-01-27T15:47:40.787Z,98289.41
2023-01-27T15:50:56.976Z,98290.91
2023-01-27T15:54:04.901Z,98298.31
2023-01-27T15:57:32.111Z,98298.03
2023-01-27T16:00:42.990Z,98299.78
2023-01-27T16:03:53.394Z,98296.66
2023-01-27T16:07:04.963Z,98296.03
2023-01-27T16:10:25.511Z,98283.19
2023-01-27T16:13:34.540Z,98279.19
2023-01-27T16:16:43.416Z,98282.13
2023-01-27T16:20:03.528Z,98290.31
2023-01-27T16:23:19.444Z,98283.28
2023-01-27T16:26:39.901Z,98283.91
2023-01-27T16:30:00.924Z,98280.56
2023-01-27T16:33:18.370Z,98285.38
2023-01-27T16:36:31.921Z,98282.41
2023-01-27T16:39:50.419Z,98283.69
2023-01-27T16:43:06.407Z,98278.22
2023-01-27T16:46:40.909Z,98280.75
2023-01-27T16:49:49.978Z,98275.63
2023-01-27T16:52:56.242Z,98284.72
2023-01-27T16:56:08.454Z,98292.91
2023-01-27T16:59:29.807Z,98293.53
2023-01-27T17:02:41.981Z,98290.19
2023-01-27T17:05:56.268Z,98303.59
2023-01-27T17:09:03.499Z,98303.16
2023-01-27T18:29:08.065Z,98345.31
2023-01-27T18:32:23.999Z,98349.03
2023-01-27T18:35:38.051Z,98354.91
2023-01-27T18:38:51.035Z,98360.25
2023-01-27T18:41:57.478Z,98354.50
2023-01-27T18:45:12.289Z,98358.94
2023-01-27T18:48:21.289Z,98359.88
2023-01-27T18:51:29.055Z,98356.22
2023-01-27T18:54:35.105Z,98365.75
2023-01-27T18:57:41.767Z,98353.13
2023-01-27T19:00:55.894Z,98365.38
2023-01-27T19:04:06.020Z,98348.84
2023-01-27T19:07:16.146Z,98353.88
2023-01-27T19:10:28.583Z,98360.84
2023-01-27T19:13:37.236Z,98376.97
2023-01-27T19:17:05.362Z,98376.00
2023-01-27T19:20:20.239Z,98371.03
2023-01-27T19:23:32.115Z,98369.84
2023-01-27T19:26:41.374Z,98378.59
2023-01-27T19:29:48.386Z,98380.28
2023-01-27T19:32:58.471Z,98377.09
2023-01-27T19:36:21.033Z,98376.19
2023-01-27T19:39:27.062Z,98380.69
2023-01-27T19:42:33.686Z,98384.75
2023-01-27T19:45:39.590Z,98378.00
2023-01-27T19:48:49.403Z,98390.97
2023-01-27T19:51:55.246Z,98400.75
2023-01-27T19:55:05.302Z,98392.56
2023-01-27T19:58:31.361Z,98391.66
2023-01-27T20:01:38.523Z,98401.50
2023-01-27T20:04:46.989Z,98409.59
2023-01-27T20:07:54.673Z,98408.00
2023-01-27T20:11:05.829Z,98408.31
2023-01-27T20:14:19.030Z,98409.47
2023-01-27T20:17:25.007Z,98416.91
2023-01-27T20:20:34.549Z,98417.88
2023-01-27T20:23:41.815Z,98416.16
2023-01-27T20:26:49.556Z,98420.25
2023-01-27T20:29:56.005Z,98422.88
2023-01-27T20:33:05.271Z,98421.41
2023-01-27T20:36:19.830Z,98435.03
2023-01-27T20:39:26.728Z,98418.78
2023-01-27T20:42:33.587Z,98419.63
2023-01-27T20:45:41.082Z,98425.78
2023-01-27T20:48:47.835Z,98426.91
2023-01-27T20:51:57.264Z,98421.88
2023-01-27T20:55:03.165Z,98424.56
2023-01-27T20:58:12.892Z,98424.19
2023-01-27T21:01:22.788Z,98426.19
2023-01-27T21:04:36.114Z,98416.97
2023-01-27T21:07:44.927Z,98415.03
2023-01-27T21:10:51.522Z,98414.50
2023-01-27T21:13:57.339Z,98411.44
2023-01-27T21:17:03.965Z,98421.72
2023-01-27T21:20:12.093Z,98414.41
2023-01-27T21:23:24.099Z,98414.81
2023-01-27T21:26:30.851Z,98410.13
2023-01-27T21:29:37.604Z,98416.75
2023-01-27T21:32:43.416Z,98416.75
2023-01-27T21:35:58.173Z,98419.28
2023-01-27T21:39:06.976Z,98419.94
2023-01-27T21:42:29.873Z,98423.78
2023-01-27T21:45:38.744Z,98429.03
2023-01-27T21:48:46.055Z,98427.19
2023-01-27T21:51:53.144Z,98434.84
2023-01-27T21:55:11.424Z,98423.38
2023-01-27T21:58:27.071Z,98418.03
2023-01-27T22:01:36.093Z,98419.28
2023-01-27T22:04:44.198Z,98414.69
2023-01-27T22:07:51.902Z,98413.81
2023-01-27T22:11:05.277Z,98411.47
2023-01-27T22:14:11.837Z,98414.16
2023-01-27T22:17:19.865Z,98410.38
2023-01-27T22:20:26.684Z,98417.09
2023-01-27T22:23:32.530Z,98420.53
2023-01-27T22:26:46.269Z,98410.50
2023-01-27T22:29:52.066Z,98403.38
2023-01-27T22:32:58.861Z,98402.03
2023-01-27T22:36:07.479Z,98404.53
2023-01-27T22:39:14.543Z,98403.13
2023-01-27T22:42:22.930Z,98405.75
2023-01-27T22:45:29.876Z,98407.41
2023-01-27T22:48:39.296Z,98397.09
2023-01-27T22:51:48.619Z,98389.16
2023-01-27T22:54:55.778Z,98385.25
2023-01-27T22:58:05.211Z,98388.22
2023-01-27T23:01:11.791Z,98391.81
2023-01-27T23:04:18.615Z,98398.25
2023-01-27T23:07:24.691Z,98397.03
2023-01-27T23:10:31.285Z,98390.78
2023-01-27T23:13:40.063Z,98386.25
2023-01-27T23:16:46.797Z,98394.63
2023-01-27T23:19:52.662Z,98389.34
2023-01-27T23:22:59.187Z,98389.16
2023-01-27T23:26:08.118Z,98383.16
2023-01-27T23:29:24.664Z,98382.38
2023-01-27T23:32:31.383Z,98386.19
2023-01-27T23:35:37.993Z,98377.44
2023-01-27T23:38:43.775Z,98378.25
2023-01-27T23:41:56.419Z,98370.91
2023-01-27T23:45:25.512Z,98367.25
2023-01-27T23:48:32.609Z,98379.97
2023-01-27T23:51:38.374Z,98380.03
2023-01-27T23:54:44.948Z,98380.78
2023-01-27T23:57:50.693Z,98372.75
